createdAt,value
2022-11-01T00:01:00.265Z,14.16
2022-11-01T00:06:04.489Z,14.09
2022-11-01T00:11:09.164Z,14.12
2022-11-01T00:16:15.326Z,14.30
2022-11-01T00:21:17.587Z,14.15
2022-11-01T00:26:22.479Z,14.24
2022-11-01T00:31:24.324Z,14.24
2022-11-01T00:36:25.839Z,14.12
2022-11-01T00:41:27.313Z,14.26
2022-11-01T00:46:28.793Z,14.21
2022-11-01T00:51:30.342Z,13.95
2022-11-01T00:56:31.877Z,13.85
2022-11-01T01:01:33.523Z,13.87
2022-11-01T01:06:35.137Z,13.91
2022-11-01T01:11:36.517Z,13.85
2022-11-01T01:16:38.067Z,13.96
2022-11-01T01:21:39.477Z,13.97
2022-11-01T01:26:40.891Z,13.94
2022-11-01T01:31:42.466Z,14.09
2022-11-01T01:36:44.761Z,14.15
2022-11-01T01:41:57.853Z,14.20
2022-11-01T01:46:59.456Z,14.05
2022-11-01T01:52:01.212Z,14.20
2022-11-01T01:57:03.241Z,14.20
2022-11-01T02:02:05.101Z,14.16
2022-11-01T02:07:08.339Z,14.06
2022-11-01T02:12:13.102Z,14.13
2022-11-01T02:17:21.610Z,14.15
2022-11-01T02:22:46.078Z,14.28
2022-11-01T02:27:56.798Z,14.29
2022-11-01T02:33:20.062Z,14.26
2022-11-01T02:38:27.789Z,14.37
2022-11-01T02:43:34.222Z,14.56
2022-11-01T02:48:36.375Z,14.70
2022-11-01T02:53:37.738Z,14.72
2022-11-01T02:58:39.560Z,14.94
2022-11-01T03:03:43.391Z,14.94
2022-11-01T03:08:59.147Z,15.01
2022-11-01T03:14:27.563Z,15.16
2022-11-01T03:19:50.311Z,15.15
2022-11-01T03:25:00.463Z,15.15
2022-11-01T03:30:09.409Z,15.32
2022-11-01T03:35:18.381Z,15.25
2022-11-01T03:40:21.046Z,15.18
2022-11-01T03:45:25.569Z,15.23
2022-11-01T03:50:28.581Z,15.16
2022-11-01T03:55:30.065Z,15.48
2022-11-01T04:00:34.676Z,15.28
2022-11-01T04:05:37.764Z,15.52
2022-11-01T04:10:39.209Z,15.30
2022-11-01T04:15:58.968Z,15.17
2022-11-01T04:21:26.553Z,14.87
2022-11-01T04:26:27.931Z,14.90
2022-11-01T04:31:30.622Z,14.58
2022-11-01T04:36:31.999Z,14.38
2022-11-01T04:41:33.386Z,14.33
2022-11-01T04:46:34.982Z,14.19
2022-11-01T04:56:46.053Z,13.89
2022-11-01T05:01:47.539Z,13.79
2022-11-01T05:06:49.020Z,13.60
2022-11-01T05:11:50.372Z,13.49
2022-11-01T05:16:55.744Z,13.42
2022-11-01T05:21:57.991Z,13.37
2022-11-01T05:27:00.698Z,13.13
2022-11-01T05:32:02.126Z,13.01
2022-11-01T05:37:03.662Z,13.18
2022-11-01T05:42:05.103Z,13.19
2022-11-01T05:47:07.918Z,13.26
2022-11-01T05:52:09.373Z,13.39
2022-11-01T05:57:10.757Z,13.31
2022-11-01T06:02:12.145Z,13.12
2022-11-01T06:07:13.527Z,13.00
2022-11-01T06:12:14.904Z,12.93
2022-11-01T06:17:16.515Z,12.87
2022-11-01T06:22:18.078Z,12.79
2022-11-01T06:27:19.619Z,12.67
2022-11-01T06:32:23.851Z,12.74
2022-11-01T06:37:32.888Z,12.66
2022-11-01T06:42:36.698Z,12.64
2022-11-01T06:52:44.464Z,12.58
2022-11-01T06:57:59.913Z,12.51
2022-11-01T07:03:04.607Z,12.50
2022-11-01T07:08:08.347Z,12.50
2022-11-01T07:13:12.821Z,12.44
2022-11-01T07:18:14.243Z,12.39
2022-11-01T07:23:16.809Z,12.39
2022-11-01T07:28:18.362Z,12.47
2022-11-01T07:33:20.285Z,12.47
2022-11-01T07:38:21.689Z,12.42
2022-11-01T07:43:23.064Z,12.51
2022-11-01T07:48:24.628Z,12.39
2022-11-01T07:53:26.040Z,12.49
2022-11-01T07:58:27.662Z,12.51
2022-11-01T08:03:29.086Z,12.46
2022-11-01T08:08:30.811Z,12.43
2022-11-01T08:13:32.622Z,12.42
2022-11-01T08:18:34.099Z,12.54
2022-11-01T08:23:35.885Z,12.50
2022-11-01T08:28:37.652Z,12.61
2022-11-01T08:33:39.054Z,12.53
2022-11-01T08:38:40.624Z,12.74
2022-11-01T08:43:42.056Z,12.90
2022-11-01T08:48:43.441Z,12.99
2022-11-01T08:53:44.878Z,13.05
2022-11-01T08:58:48.975Z,13.06
2022-11-01T09:03:50.431Z,13.10
2022-11-01T09:08:53.427Z,13.04
2022-11-01T09:13:54.844Z,13.05
2022-11-01T09:19:01.422Z,13.01
2022-11-01T09:24:02.900Z,13.09
2022-11-01T09:29:04.520Z,13.23
2022-11-01T09:34:05.882Z,13.20
2022-11-01T09:39:07.267Z,13.33
2022-11-01T09:44:16.462Z,13.33
2022-11-01T09:49:23.053Z,13.36
2022-11-01T09:54:25.757Z,13.33
2022-11-01T09:59:35.290Z,13.43
2022-11-01T10:05:01.794Z,13.50
2022-11-01T10:10:24.748Z,13.50
2022-11-01T10:15:47.216Z,13.74
2022-11-01T10:20:48.664Z,13.84
2022-11-01T10:25:52.999Z,13.81
2022-11-01T10:31:01.741Z,13.85
2022-11-01T10:36:10.763Z,14.12
2022-11-01T10:41:41.063Z,14.29
2022-11-01T10:46:46.878Z,14.61
2022-11-01T10:51:51.883Z,14.89
2022-11-01T10:56:56.094Z,14.76
2022-11-01T11:02:00.355Z,15.03
2022-11-01T11:07:02.340Z,15.06
2022-11-01T11:12:09.727Z,15.61
2022-11-01T11:17:20.304Z,15.48
2022-11-01T11:22:24.315Z,15.40
2022-11-01T11:27:30.267Z,15.85
2022-11-01T11:32:46.105Z,15.59
2022-11-01T11:38:06.286Z,15.64
2022-11-01T11:43:36.227Z,15.99
2022-11-01T11:48:58.282Z,15.53
2022-11-01T11:54:21.709Z,15.73
2022-11-01T11:59:29.273Z,15.71
2022-11-01T12:05:03.642Z,15.83
2022-11-01T12:10:26.054Z,15.89
2022-11-01T12:15:29.871Z,15.67
2022-11-01T12:20:36.575Z,15.43
2022-11-01T12:25:42.307Z,15.37
2022-11-01T12:30:44.529Z,15.36
2022-11-01T12:35:47.698Z,15.46
2022-11-01T12:40:52.387Z,15.40
2022-11-01T12:46:04.609Z,15.47
2022-11-01T12:51:17.013Z,15.25
2022-11-01T12:56:18.609Z,15.40
2022-11-01T13:01:40.405Z,15.22
2022-11-01T13:07:03.453Z,15.40
2022-11-01T13:12:32.007Z,15.40
2022-11-01T13:17:58.138Z,15.41
2022-11-01T13:23:40.431Z,15.46
2022-11-01T13:28:47.982Z,15.37
2022-11-01T13:33:59.177Z,15.58
2022-11-01T13:39:13.366Z,15.56
2022-11-01T13:44:22.537Z,15.43
2022-11-01T13:49:48.008Z,15.55
2022-11-01T13:55:06.821Z,15.47
2022-11-01T14:00:40.421Z,15.40
2022-11-01T14:05:44.671Z,15.30
2022-11-01T14:10:48.605Z,15.38
2022-11-01T14:15:56.069Z,15.35
2022-11-01T14:20:57.562Z,15.34
2022-11-01T14:26:24.640Z,15.26
2022-11-01T14:31:28.341Z,15.28
2022-11-01T14:36:35.737Z,15.22
2022-11-01T14:41:40.974Z,15.18
2022-11-01T14:46:46.397Z,15.06
2022-11-01T14:52:08.124Z,15.08
2022-11-01T14:57:29.312Z,15.07
2022-11-01T15:02:31.996Z,14.97
2022-11-01T15:07:41.955Z,14.97
2022-11-01T15:12:58.745Z,14.85
2022-11-01T15:18:14.932Z,14.87
2022-11-01T15:23:25.121Z,14.71
2022-11-01T15:28:33.033Z,14.76
2022-11-01T15:33:34.842Z,14.62
2022-11-01T15:38:50.451Z,14.53
2022-11-01T15:43:53.503Z,14.55
2022-11-01T15:48:58.179Z,14.39
2022-11-01T15:54:16.052Z,14.42
2022-11-01T15:59:24.231Z,14.31
2022-11-01T16:04:27.479Z,14.25
2022-11-01T16:09:50.815Z,14.20
2022-11-01T16:15:02.825Z,14.30
2022-11-01T16:20:37.975Z,14.24
2022-11-01T16:25:39.830Z,14.22
2022-11-01T16:30:49.099Z,14.11
2022-11-01T16:36:26.546Z,14.08
2022-11-01T16:41:39.689Z,14.05
2022-11-01T16:46:42.980Z,14.00
2022-11-01T16:51:44.438Z,14.10
2022-11-01T16:56:48.141Z,14.06
2022-11-01T17:01:50.746Z,14.07
2022-11-01T17:06:53.127Z,14.03
2022-11-01T17:11:54.553Z,13.92
2022-11-01T17:16:56.396Z,13.89
2022-11-01T17:22:01.155Z,14.10
2022-11-01T17:27:05.285Z,13.98
2022-11-01T17:32:11.280Z,14.00
2022-11-01T17:37:17.133Z,14.02
2022-11-01T17:42:18.568Z,13.90
2022-11-01T17:47:19.967Z,13.87
2022-11-01T17:52:21.384Z,13.90
2022-11-01T17:57:22.976Z,13.90
2022-11-01T18:02:24.562Z,13.94
2022-11-01T18:07:34.907Z,13.84
2022-11-01T18:12:44.552Z,13.86
2022-11-01T18:18:10.258Z,13.86
2022-11-01T18:23:14.841Z,13.70
2022-11-01T18:28:18.611Z,13.72
2022-11-01T18:33:25.327Z,13.63
2022-11-01T18:38:50.243Z,13.65
2022-11-01T18:43:53.247Z,13.61
2022-11-01T18:49:00.931Z,13.55
2022-11-01T18:54:08.586Z,13.63
2022-11-01T18:59:15.486Z,13.69
2022-11-01T19:04:25.125Z,13.63
2022-11-01T19:09:29.982Z,13.64
2022-11-01T19:14:32.701Z,13.61
2022-11-01T19:19:37.393Z,13.48
2022-11-01T19:24:40.157Z,13.41
2022-11-01T19:29:41.937Z,13.39
2022-11-01T19:34:43.448Z,13.40
2022-11-01T19:39:45.033Z,13.36
2022-11-01T19:44:46.797Z,13.48
2022-11-01T19:49:49.390Z,13.40
2022-11-01T19:54:53.065Z,13.46
2022-11-01T20:00:01.232Z,13.34
2022-11-01T20:05:26.383Z,13.27
2022-11-01T20:10:28.123Z,13.19
2022-11-01T20:15:29.841Z,13.12
2022-11-01T20:20:32.457Z,13.24
2022-11-01T20:25:33.893Z,13.21
2022-11-01T20:30:35.301Z,13.11
2022-11-01T20:35:36.749Z,13.08
2022-11-01T20:40:38.351Z,13.05
2022-11-01T20:45:39.921Z,13.10
2022-11-01T20:50:41.535Z,13.10
2022-11-01T20:55:43.553Z,13.08
2022-11-01T21:00:45.021Z,13.10
2022-11-01T21:05:48.643Z,13.12
2022-11-01T21:11:09.860Z,13.02
2022-11-01T21:16:29.244Z,13.10
2022-11-01T21:21:46.543Z,13.09
2022-11-01T21:26:53.382Z,13.20
2022-11-01T21:31:57.635Z,13.28
2022-11-01T21:36:59.176Z,13.19
2022-11-01T21:42:04.627Z,13.09
2022-11-01T21:47:11.436Z,12.98
2022-11-01T21:52:16.565Z,12.45
2022-11-01T21:57:18.870Z,12.30
2022-11-01T22:02:23.353Z,12.20
2022-11-01T22:07:25.889Z,12.06
2022-11-01T22:12:27.474Z,11.81
2022-11-01T22:17:28.862Z,11.70
2022-11-01T22:22:30.224Z,11.62
2022-11-01T22:27:31.569Z,11.55
2022-11-01T22:32:33.004Z,11.47
2022-11-01T22:37:35.672Z,11.40
2022-11-01T22:42:37.023Z,11.46
2022-11-01T22:47:39.315Z,11.37
2022-11-01T22:52:44.558Z,11.31
2022-11-01T22:57:57.399Z,11.27
2022-11-01T23:03:23.023Z,11.30
2022-11-01T23:08:30.238Z,11.20
2022-11-01T23:13:55.705Z,11.17
2022-11-01T23:19:01.294Z,11.17
2022-11-01T23:24:03.039Z,11.13
2022-11-01T23:29:04.508Z,11.20
2022-11-01T23:34:06.789Z,11.24
2022-11-01T23:39:13.148Z,11.35
2022-11-01T23:44:34.342Z,11.58
2022-11-01T23:49:35.995Z,11.77
2022-11-01T23:54:44.910Z,12.17
2022-11-01T23:59:50.867Z,12.16
